Time;durP1;ratioP1;P1;durP2;ratioP2;P2;SDS_P1;SDS_P2;PMS_P1;PMS_P2;Temp;Humidity;BMP_temperature;BMP_pressure;BME280_temperature;BME280_humidity;BME280_pressure;Samples;Min_cycle;Max_cycle;Signal;HPM_P1;HPM_P2
2021/11/22 00:00:18;;;;;;;97.78;49.85;;;230.40;1792.00;;;;;;5053450;28;20042;-60
2021/11/22 00:02:46;;;;;;;102.00;49.97;;;230.40;1792.00;;;;;;5053887;28;20104;-60
2021/11/22 00:05:12;;;;;;;93.63;48.92;;;230.40;1792.00;;;;;;5053732;28;20028;-59
2021/11/22 00:07:38;;;;;;;89.50;48.90;;;230.40;1766.40;;;;;;5053917;28;20025;-59
2021/11/22 00:10:05;;;;;;;87.88;44.03;;;230.40;1792.00;;;;;;5052606;28;20132;-61
2021/11/22 00:12:33;;;;;;;76.43;40.53;;;230.40;1766.40;;;;;;5054297;28;20463;-60
2021/11/22 00:15:00;;;;;;;69.60;38.90;;;230.40;1766.40;;;;;;5053556;28;20398;-61
2021/11/22 00:17:26;;;;;;;72.40;39.53;;;230.40;1766.40;;;;;;5053825;28;20494;-60
2021/11/22 00:19:52;;;;;;;74.38;40.90;;;205.70;1766.40;;;;;;5053794;28;20021;-61
2021/11/22 00:22:17;;;;;;;66.57;38.35;;;205.70;1766.40;;;;;;5052704;28;20029;-61
2021/11/22 00:24:43;;;;;;;67.50;36.60;;;205.70;1792.00;;;;;;5053604;28;20028;-60
2021/11/22 00:27:09;;;;;;;65.88;35.75;;;205.60;1792.00;;;;;;5053552;28;20025;-60
2021/11/22 00:29:35;;;;;;;61.60;35.67;;;205.70;1792.00;;;;;;5052625;28;20573;-60
2021/11/22 00:32:03;;;;;;;61.35;34.75;;;205.60;1792.00;;;;;;5053704;28;20028;-60
2021/11/22 00:34:30;;;;;;;60.47;35.92;;;205.70;1766.40;;;;;;5053815;28;20071;-60
2021/11/22 00:36:56;;;;;;;61.70;35.83;;;205.60;1792.00;;;;;;5053360;28;20028;-59
2021/11/22 00:39:22;;;;;;;61.28;36.03;;;205.60;1792.00;;;;;;5053258;28;20068;-59
2021/11/22 00:41:47;;;;;;;61.03;34.45;;;205.60;1766.40;;;;;;5053794;28;20055;-59
2021/11/22 00:44:15;;;;;;;65.95;35.78;;;205.50;1792.00;;;;;;5053461;28;20378;-59
2021/11/22 00:46:41;;;;;;;61.22;35.40;;;205.50;1766.40;;;;;;5053436;28;20028;-60
2021/11/22 00:49:07;;;;;;;60.30;34.72;;;205.50;1766.40;;;;;;5053838;28;20025;-61
2021/11/22 00:51:33;;;;;;;65.05;36.58;;;205.50;1766.40;;;;;;5053480;28;20029;-61
2021/11/22 00:53:59;;;;;;;63.47;36.50;;;205.50;1792.00;;;;;;5052097;28;20037;-60
2021/11/22 00:56:24;;;;;;;73.97;38.42;;;205.40;1766.40;;;;;;5053368;28;20040;-60
2021/11/22 00:58:50;;;;;;;60.95;36.47;;;205.50;1766.40;;;;;;5053376;28;20049;-60
2021/11/22 01:01:16;;;;;;;64.30;36.88;;;205.40;1766.40;;;;;;5054976;28;20489;-61
2021/11/22 01:03:42;;;;;;;68.65;38.20;;;205.40;1766.40;;;;;;5057353;28;20094;-59
2021/11/22 01:06:08;;;;;;;64.03;37.10;;;205.40;1766.40;;;;;;5055876;28;20029;-60
2021/11/22 01:08:34;;;;;;;72.53;39.20;;;205.30;1766.40;;;;;;5055642;28;20083;-60
2021/11/22 01:10:59;;;;;;;76.90;40.17;;;205.30;1766.40;;;;;;5057211;28;20055;-60
2021/11/22 01:13:25;;;;;;;76.43;42.60;;;205.30;1766.40;;;;;;5057085;28;20082;-60
2021/11/22 01:15:51;;;;;;;74.78;41.65;;;205.30;1792.00;;;;;;5057041;28;20119;-60
2021/11/22 01:18:17;;;;;;;75.85;40.85;;;205.30;1766.40;;;;;;5056819;28;20437;-61
2021/11/22 01:20:43;;;;;;;71.90;42.50;;;205.30;1792.00;;;;;;5056901;28;20028;-61
2021/11/22 01:23:12;;;;;;;74.10;41.00;;;205.30;1766.40;;;;;;5056710;28;20116;-60
2021/11/22 01:25:42;;;;;;;78.07;45.80;;;205.30;1792.00;;;;;;5055328;28;20091;-60
2021/11/22 01:28:08;;;;;;;77.53;45.97;;;205.30;1766.40;;;;;;5056664;28;20029;-59
2021/11/22 01:30:34;;;;;;;72.82;45.50;;;205.30;1792.00;;;;;;5056575;28;20100;-60
2021/11/22 01:33:00;;;;;;;75.18;40.85;;;205.20;1766.40;;;;;;5056707;28;20021;-60
2021/11/22 01:35:26;;;;;;;70.47;38.05;;;205.30;1792.00;;;;;;5056520;28;20056;-59
2021/11/22 01:37:52;;;;;;;58.47;34.63;;;205.20;1792.00;;;;;;5055299;28;20032;-60
2021/11/22 01:40:21;;;;;;;55.08;32.70;;;205.20;1792.00;;;;;;5056569;28;20021;-60
2021/11/22 01:42:49;;;;;;;62.83;33.45;;;205.20;1792.00;;;;;;5055497;28;20446;-59
2021/11/22 01:45:18;;;;;;;56.78;33.35;;;205.20;1766.40;;;;;;5054985;28;20413;-59
2021/11/22 01:47:45;;;;;;;58.75;31.55;;;205.30;1792.00;;;;;;5056471;28;20025;-59
2021/11/22 01:50:16;;;;;;;54.20;30.65;;;205.20;1766.40;;;;;;5056292;28;20054;-59
2021/11/22 01:52:42;;;;;;;58.28;31.90;;;205.20;1792.00;;;;;;5056143;28;20505;-59
2021/11/22 01:55:10;;;;;;;55.72;31.02;;;205.00;1792.00;;;;;;5056093;28;20029;-59
2021/11/22 01:57:36;;;;;;;49.28;29.35;;;205.10;1792.00;;;;;;5056263;28;20395;-60
2021/11/22 02:00:09;;;;;;;46.78;28.83;;;205.10;1792.00;;;;;;5056018;28;20031;-60
2021/11/22 02:02:35;;;;;;;47.78;29.38;;;205.10;1792.00;;;;;;5055973;28;20128;-59
2021/11/22 02:05:01;;;;;;;53.25;32.75;;;205.10;1792.00;;;;;;5056050;28;20526;-59
2021/11/22 02:07:26;;;;;;;64.78;38.90;;;205.20;1792.00;;;;;;5056026;28;20036;-60
2021/11/22 02:09:52;;;;;;;73.13;40.95;;;205.10;1792.00;;;;;;5055940;28;20025;-59
2021/11/22 02:12:19;;;;;;;85.22;46.85;;;205.00;1817.60;;;;;;5054677;28;20029;-60
2021/11/22 02:14:44;;;;;;;91.45;49.53;;;205.00;1792.00;;;;;;5055699;28;20036;-60
2021/11/22 02:17:11;;;;;;;107.95;57.25;;;205.10;1792.00;;;;;;5055805;28;20094;-59
2021/11/22 02:19:56;;;;;;;114.75;60.67;;;205.00;1792.00;;;;;;5055973;28;20033;-60
2021/11/22 02:22:22;;;;;;;;;;;205.00;1792.00;;;;;;5055165;28;20048;-59
2021/11/22 02:24:48;;;;;;;122.45;64.35;;;204.90;1792.00;;;;;;5055477;28;19905;-59
2021/11/22 02:27:14;;;;;;;126.68;65.72;;;204.90;1817.60;;;;;;5055448;28;20032;-59
2021/11/22 02:29:39;;;;;;;131.35;67.95;;;204.90;1792.00;;;;;;5055693;28;20051;-59
2021/11/22 02:32:05;;;;;;;124.00;63.53;;;204.90;1792.00;;;;;;5055456;28;20033;-59
2021/11/22 02:34:32;;;;;;;123.25;65.13;;;205.00;1792.00;;;;;;5055537;28;20032;-59
2021/11/22 02:36:57;;;;;;;119.78;65.15;;;204.90;1792.00;;;;;;5053902;28;20052;-59
2021/11/22 02:39:23;;;;;;;116.15;61.45;;;204.90;1792.00;;;;;;5055269;28;20027;-59
2021/11/22 02:41:49;;;;;;;84.95;48.05;;;204.90;1792.00;;;;;;5055394;28;20370;-59
2021/11/22 02:44:15;;;;;;;69.18;39.00;;;204.90;1792.00;;;;;;5054210;28;20059;-59
2021/11/22 02:46:40;;;;;;;55.60;31.85;;;204.90;1792.00;;;;;;5055295;28;20029;-59
2021/11/22 02:49:06;;;;;;;46.47;27.63;;;204.90;1817.60;;;;;;5055175;28;20048;-59
2021/11/22 02:51:32;;;;;;;41.42;24.15;;;204.90;1792.00;;;;;;5054329;28;20033;-59
2021/11/22 02:54:03;;;;;;;31.00;20.88;;;204.90;1792.00;;;;;;5054954;28;20037;-59
2021/11/22 02:56:31;;;;;;;37.55;22.10;;;204.80;1817.60;;;;;;5054935;28;20099;-59
2021/11/22 02:58:58;;;;;;;30.83;20.27;;;204.80;1817.60;;;;;;5054847;28;20021;-59
2021/11/22 03:01:24;;;;;;;38.30;21.48;;;204.80;1792.00;;;;;;5055069;28;20021;-59
2021/11/22 03:03:51;;;;;;;29.45;19.60;;;204.80;1817.60;;;;;;5055043;28;20489;-59
2021/11/22 03:06:18;;;;;;;29.85;18.88;;;180.10;1817.60;;;;;;5054964;28;20029;-59
2021/11/22 03:08:45;;;;;;;30.23;18.95;;;204.80;1792.00;;;;;;5053767;28;20391;-59
2021/11/22 03:11:13;;;;;;;30.38;18.65;;;204.80;1817.60;;;;;;5054760;28;20486;-59
2021/11/22 03:13:40;;;;;;;25.88;18.30;;;204.80;1792.00;;;;;;5055225;28;20525;-59
2021/11/22 03:16:07;;;;;;;31.02;20.10;;;204.80;1792.00;;;;;;5054498;28;20033;-59
2021/11/22 03:18:33;;;;;;;32.72;19.35;;;204.80;1792.00;;;;;;5054718;28;20021;-60
2021/11/22 03:20:59;;;;;;;28.73;20.25;;;204.80;1792.00;;;;;;5054516;28;20033;-59
2021/11/22 03:23:27;;;;;;;32.22;20.40;;;204.80;1817.60;;;;;;5054281;28;20029;-59
2021/11/22 03:25:53;;;;;;;30.17;19.95;;;180.10;1792.00;;;;;;5054263;28;20025;-60
2021/11/22 03:28:20;;;;;;;32.20;20.00;;;204.80;1817.60;;;;;;5054325;28;20032;-59
2021/11/22 03:30:46;;;;;;;30.95;21.02;;;180.10;1792.00;;;;;;5054443;28;20033;-59
2021/11/22 03:33:13;;;;;;;33.20;20.98;;;180.10;1792.00;;;;;;5054294;28;20021;-59
2021/11/22 03:35:40;;;;;;;30.38;20.58;;;180.10;1792.00;;;;;;5054575;28;20017;-59
2021/11/22 03:38:07;;;;;;;36.85;20.65;;;180.10;1792.00;;;;;;5054251;28;20466;-59
2021/11/22 03:40:34;;;;;;;35.03;21.95;;;180.10;1792.00;;;;;;5054160;28;20025;-59
2021/11/22 03:45:28;;;;;;;35.25;22.52;;;180.10;1766.40;;;;;;5054345;28;20029;-59
2021/11/22 03:47:54;;;;;;;36.80;23.45;;;180.10;1792.00;;;;;;5054060;28;20025;-59
2021/11/22 03:50:20;;;;;;;34.83;22.58;;;180.00;1766.40;;;;;;5053936;28;20032;-59
2021/11/22 03:52:46;;;;;;;49.88;27.98;;;180.00;1792.00;;;;;;5053893;28;20045;-59
2021/11/22 03:55:11;;;;;;;47.85;29.95;;;179.90;1766.40;;;;;;5053651;28;20041;-58
2021/11/22 03:57:37;;;;;;;56.03;30.77;;;179.80;1817.60;;;;;;5054262;28;20485;-58
2021/11/22 04:00:04;;;;;;;62.40;36.35;;;179.90;1792.00;;;;;;5053767;28;20033;-59
2021/11/22 04:02:30;;;;;;;68.55;37.75;;;179.80;1817.60;;;;;;5053749;28;20043;-58
2021/11/22 04:04:56;;;;;;;65.57;38.97;;;179.90;1792.00;;;;;;5053930;28;20056;-59
2021/11/22 04:07:21;;;;;;;64.25;36.80;;;179.80;1766.40;;;;;;5053894;28;20067;-59
2021/11/22 04:09:47;;;;;;;64.40;36.58;;;179.80;1817.60;;;;;;5053624;28;20105;-60
2021/11/22 04:12:13;;;;;;;71.00;37.90;;;179.70;1843.20;;;;;;5052316;28;20068;-59
2021/11/22 04:14:39;;;;;;;58.47;34.50;;;179.60;1843.20;;;;;;5053695;28;20383;-59
2021/11/22 04:17:05;;;;;;;67.28;34.63;;;179.60;1843.20;;;;;;5053854;28;20051;-61
2021/11/22 04:19:30;;;;;;;77.38;37.88;;;179.70;1868.80;;;;;;5053637;28;20036;-59
2021/11/22 04:21:56;;;;;;;72.80;37.65;;;179.80;1920.00;;;;;;5054063;28;20033;-59
2021/11/22 04:24:22;;;;;;;69.50;38.92;;;179.60;1894.40;;;;;;5053605;28;20036;-59
2021/11/22 04:26:48;;;;;;;67.55;37.45;;;179.60;1868.80;;;;;;5053150;28;20363;-59
2021/11/22 04:29:13;;;;;;;62.90;36.78;;;179.70;1868.80;;;;;;5052128;28;20066;-59
2021/11/22 04:31:39;;;;;;;66.53;36.45;;;179.80;1843.20;;;;;;5053611;28;20029;-59
2021/11/22 04:34:05;;;;;;;60.20;35.35;;;179.80;1843.20;;;;;;5053467;28;20463;-59
2021/11/22 04:36:31;;;;;;;62.90;36.35;;;179.80;1868.80;;;;;;5055926;28;20116;-59
2021/11/22 04:38:56;;;;;;;66.72;36.72;;;179.70;1868.80;;;;;;5057603;28;20017;-59
2021/11/22 04:41:24;;;;;;;62.80;36.13;;;179.70;1868.80;;;;;;5057714;28;20021;-59
2021/11/22 04:43:50;;;;;;;56.72;33.80;;;179.60;1868.80;;;;;;5057716;28;20031;-59
2021/11/22 04:46:16;;;;;;;57.72;33.35;;;179.70;1868.80;;;;;;5056143;28;20124;-59
2021/11/22 04:48:41;;;;;;;55.05;32.92;;;179.80;1843.20;;;;;;5057606;28;20029;-59
2021/11/22 04:51:07;;;;;;;56.40;33.13;;;179.90;1843.20;;;;;;5057770;28;20025;-59
2021/11/22 04:53:33;;;;;;;74.90;38.55;;;179.90;1843.20;;;;;;5057242;28;20406;-59
2021/11/22 04:55:59;;;;;;;65.57;37.28;;;179.80;1843.20;;;;;;5056288;28;20445;-58
2021/11/22 04:58:25;;;;;;;66.28;38.85;;;179.70;1868.80;;;;;;5057283;28;20090;-59
2021/11/22 05:00:50;;;;;;;59.85;34.17;;;179.60;1868.80;;;;;;5056215;28;20037;-59
2021/11/22 05:03:16;;;;;;;72.15;38.70;;;179.80;1868.80;;;;;;5057034;28;20094;-59
2021/11/22 05:05:42;;;;;;;119.22;61.50;;;179.90;1843.20;;;;;;5057164;28;20040;-58
2021/11/22 05:08:08;;;;;;;99.30;55.53;;;179.80;1817.60;;;;;;5057231;28;20108;-59
2021/11/22 05:10:44;;;;;;;173.02;112.22;;;179.60;1843.20;;;;;;5057219;28;20029;-59
2021/11/22 05:13:13;;;;;;;90.25;56.92;;;179.60;1843.20;;;;;;5056222;28;20036;-59
2021/11/22 05:15:41;;;;;;;82.03;48.90;;;179.50;1843.20;;;;;;5057247;28;20017;-59
2021/11/22 05:18:09;;;;;;;57.78;37.97;;;179.50;1843.20;;;;;;5056995;28;20033;-59
2021/11/22 05:20:36;;;;;;;47.55;29.85;;;179.50;1843.20;;;;;;5056706;28;20017;-59
2021/11/22 05:23:02;;;;;;;43.85;26.85;;;179.60;1817.60;;;;;;5056971;28;20029;-60
2021/11/22 05:25:28;;;;;;;35.33;24.83;;;179.70;1817.60;;;;;;5056749;28;20029;-58
2021/11/22 05:27:54;;;;;;;41.05;26.80;;;179.70;1817.60;;;;;;5056906;28;20027;-59
2021/11/22 05:30:25;;;;;;;56.65;33.92;;;179.70;1792.00;;;;;;5056925;28;20104;-59
2021/11/22 05:32:52;;;;;;;62.15;36.97;;;179.80;1792.00;;;;;;5056552;28;20490;-58
2021/11/22 05:35:18;;;;;;;56.90;34.10;;;179.80;1792.00;;;;;;5056670;28;20033;-59
2021/11/22 05:37:44;;;;;;;51.92;32.35;;;179.80;1792.00;;;;;;5056614;28;20048;-59
2021/11/22 05:40:10;;;;;;;52.50;33.10;;;179.80;1792.00;;;;;;5056197;28;20047;-59
2021/11/22 05:42:36;;;;;;;51.60;32.55;;;179.80;1792.00;;;;;;5056731;28;20036;-58
2021/11/22 05:45:03;;;;;;;48.35;30.25;;;179.80;1792.00;;;;;;5056377;28;20025;-59
2021/11/22 05:47:29;;;;;;;57.25;32.47;;;179.80;1792.00;;;;;;5056060;28;20067;-59
2021/11/22 05:50:03;;;;;;;63.95;35.42;;;179.80;1792.00;;;;;;5055936;28;20443;-59
2021/11/22 05:52:29;;;;;;;75.72;40.53;;;179.70;1817.60;;;;;;5056788;28;20056;-59
2021/11/22 05:54:56;;;;;;;84.63;46.15;;;179.60;1817.60;;;;;;5055729;28;20394;-59
2021/11/22 05:57:23;;;;;;;90.13;50.05;;;179.60;1817.60;;;;;;5056263;28;20417;-59
2021/11/22 05:59:49;;;;;;;88.43;50.70;;;179.50;1817.60;;;;;;5056150;28;20474;-59
2021/11/22 06:02:15;;;;;;;91.18;49.45;;;179.60;1817.60;;;;;;5056085;28;20036;-59
2021/11/22 06:04:41;;;;;;;90.03;49.58;;;179.60;1817.60;;;;;;5056004;28;20044;-59
2021/11/22 06:07:07;;;;;;;91.43;48.88;;;179.50;1843.20;;;;;;5054997;28;20126;-60
2021/11/22 06:09:34;;;;;;;91.63;49.95;;;179.40;1843.20;;;;;;5055874;28;20052;-60
2021/11/22 06:12:00;;;;;;;93.18;49.50;;;179.50;1843.20;;;;;;5055841;28;20033;-60
2021/11/22 06:14:26;;;;;;;95.38;50.78;;;179.50;1843.20;;;;;;5055799;28;20467;-59
2021/11/22 06:16:52;;;;;;;83.95;49.47;;;179.40;1843.20;;;;;;5055871;28;20052;-59
2021/11/22 06:19:18;;;;;;;88.68;47.13;;;179.40;1843.20;;;;;;5055539;28;20386;-59
2021/11/22 06:21:43;;;;;;;86.25;46.55;;;179.40;1868.80;;;;;;5054504;28;20043;-58
2021/11/22 06:24:09;;;;;;;80.78;43.90;;;179.30;1868.80;;;;;;5055802;28;20512;-59
2021/11/22 06:26:35;;;;;;;77.00;43.78;;;179.30;1868.80;;;;;;5054481;28;20471;-59
2021/11/22 06:29:01;;;;;;;74.93;39.72;;;179.40;1868.80;;;;;;5055481;28;20025;-59
2021/11/22 06:31:27;;;;;;;70.53;39.85;;;179.40;1868.80;;;;;;5055552;28;20033;-59
2021/11/22 06:33:53;;;;;;;65.22;40.33;;;179.40;1868.80;;;;;;5056109;28;20060;-59
2021/11/22 06:36:19;;;;;;;75.03;42.88;;;179.30;1868.80;;;;;;5055448;28;20033;-59
2021/11/22 06:38:45;;;;;;;79.28;47.65;;;179.40;1868.80;;;;;;5055237;28;20541;-59
2021/11/22 06:41:10;;;;;;;86.78;48.47;;;179.40;1868.80;;;;;;5055359;28;20116;-59
2021/11/22 06:43:37;;;;;;;77.68;46.22;;;179.40;1894.40;;;;;;5054026;28;20031;-59
2021/11/22 06:46:03;;;;;;;84.80;49.42;;;179.50;1868.80;;;;;;5055264;28;20083;-58
2021/11/22 06:48:29;;;;;;;87.20;49.00;;;179.60;1868.80;;;;;;5055215;28;20511;-60
2021/11/22 06:50:54;;;;;;;96.88;47.00;;;179.50;1894.40;;;;;;5055560;28;20120;-59
2021/11/22 06:53:21;;;;;;;87.32;47.67;;;179.50;1894.40;;;;;;5055132;28;20045;-59
2021/11/22 06:55:51;;;;;;;85.68;48.13;;;179.40;1894.40;;;;;;5055183;28;20070;-60
2021/11/22 06:58:18;;;;;;;103.43;55.00;;;179.40;1920.00;;;;;;5054403;28;20622;-59
2021/11/22 07:00:44;;;;;;;90.93;51.50;;;179.30;1920.00;;;;;;5054628;28;20459;-58
2021/11/22 07:03:09;;;;;;;80.80;45.28;;;179.30;1920.00;;;;;;5054998;28;20078;-58
2021/11/22 07:05:35;;;;;;;74.03;42.28;;;179.30;1920.00;;;;;;5054804;28;20474;-60
2021/11/22 07:08:04;;;;;;;74.95;40.85;;;179.30;1920.00;;;;;;5054956;28;20518;-59
2021/11/22 07:10:30;;;;;;;73.90;41.25;;;179.30;1920.00;;;;;;5054638;28;20021;-59
2021/11/22 07:12:56;;;;;;;66.25;41.28;;;179.30;1945.60;;;;;;5054778;28;20028;-58
2021/11/22 07:15:22;;;;;;;80.18;44.75;;;179.30;1945.60;;;;;;5054281;28;20082;-59
2021/11/22 07:17:50;;;;;;;79.85;47.42;;;179.40;1945.60;;;;;;5054395;28;20044;-60
2021/11/22 07:20:17;;;;;;;83.60;49.45;;;179.30;1945.60;;;;;;5054604;28;20433;-62
2021/11/22 07:22:43;;;;;;;91.05;48.65;;;179.40;1945.60;;;;;;5053696;28;20036;-60
2021/11/22 07:25:09;;;;;;;129.05;68.93;;;179.30;1945.60;;;;;;5054063;28;20029;-62
2021/11/22 07:27:35;;;;;;;133.63;73.55;;;179.40;1945.60;;;;;;5054277;28;20421;-61
2021/11/22 07:30:02;;;;;;;126.43;66.82;;;179.40;1971.20;;;;;;5054482;28;20024;-62
2021/11/22 07:32:28;;;;;;;120.72;69.35;;;179.40;1945.60;;;;;;5052943;28;20044;-61
2021/11/22 07:34:55;;;;;;;108.60;62.30;;;179.50;1945.60;;;;;;5054024;28;20036;-62
2021/11/22 07:37:20;;;;;;;93.03;52.95;;;179.50;1945.60;;;;;;5052871;28;20055;-62
2021/11/22 07:39:46;;;;;;;84.32;47.65;;;179.60;1945.60;;;;;;5054083;28;20037;-67
2021/11/22 07:42:13;;;;;;;79.47;48.53;;;179.70;1945.60;;;;;;5054116;28;20029;-60
2021/11/22 07:44:39;;;;;;;105.43;62.83;;;179.60;1945.60;;;;;;5053808;28;20029;-59
2021/11/22 07:47:05;;;;;;;98.38;57.90;;;179.60;1945.60;;;;;;5054134;28;20029;-63
2021/11/22 07:49:32;;;;;;;77.07;46.08;;;179.70;1945.60;;;;;;5054068;28;20029;-64
2021/11/22 07:51:58;;;;;;;70.95;43.88;;;179.70;1971.20;;;;;;5054115;28;20033;-62
2021/11/22 07:54:24;;;;;;;74.80;46.10;;;179.70;1971.20;;;;;;5053983;28;20629;-60
2021/11/22 07:56:50;;;;;;;81.78;48.45;;;179.70;1971.20;;;;;;5054031;28;20041;-59
2021/11/22 07:59:16;;;;;;;88.80;51.45;;;179.70;1971.20;;;;;;5054122;28;20037;-59
2021/11/22 08:01:42;;;;;;;99.88;54.47;;;179.70;1996.80;;;;;;5054068;28;20029;-63
2021/11/22 08:04:18;;;;;;;121.65;61.15;;;179.70;1996.80;;;;;;5054052;28;20409;-63
2021/11/22 08:06:47;;;;;;;118.38;66.10;;;179.80;1996.80;;;;;;5054551;28;20021;-59
2021/11/22 08:09:23;;;;;;;128.68;66.63;;;179.70;1996.80;;;;;;5053731;28;20035;-59
2021/11/22 08:12:02;;;;;;;163.10;82.30;;;179.70;1996.80;;;;;;5053198;28;20029;-62
2021/11/22 08:14:29;;;;;;;144.00;76.63;;;179.80;1996.80;;;;;;5053678;28;20040;-62
2021/11/22 08:16:56;;;;;;;129.60;71.25;;;179.90;1996.80;;;;;;5053818;28;20040;-60
2021/11/22 08:19:21;;;;;;;114.00;66.35;;;179.90;2022.40;;;;;;5053801;28;20035;-63
2021/11/22 08:21:47;;;;;;;111.30;65.65;;;179.90;1996.80;;;;;;5053719;28;20033;-59
2021/11/22 08:24:13;;;;;;;110.90;64.80;;;179.90;2022.40;;;;;;5053740;28;20059;-60
2021/11/22 08:26:39;;;;;;;100.85;59.63;;;179.90;1996.80;;;;;;5052849;28;20162;-59
2021/11/22 08:29:04;;;;;;;100.18;56.88;;;179.90;1996.80;;;;;;5053769;28;20024;-62
2021/11/22 08:31:30;;;;;;;104.03;56.67;;;179.90;1996.80;;;;;;5053630;28;20485;-63
2021/11/22 08:33:56;;;;;;;103.57;61.53;;;179.90;2022.40;;;;;;5053692;28;20025;-62
2021/11/22 08:36:22;;;;;;;100.07;59.85;;;180.00;1996.80;;;;;;5053718;28;20540;-60
2021/11/22 08:38:49;;;;;;;95.15;57.08;;;180.10;1996.80;;;;;;5053477;28;20029;-59
2021/11/22 08:41:15;;;;;;;95.53;53.72;;;204.80;1971.20;;;;;;5053608;28;20467;-63
2021/11/22 08:43:41;;;;;;;92.00;49.17;;;204.80;1971.20;;;;;;5052956;28;20037;-59
2021/11/22 08:46:07;;;;;;;86.57;46.35;;;204.90;1971.20;;;;;;5052310;28;20123;-60
2021/11/22 08:48:32;;;;;;;86.40;42.83;;;204.80;1971.20;;;;;;5053492;28;20025;-62
2021/11/22 08:50:59;;;;;;;67.00;39.97;;;204.90;1971.20;;;;;;5053508;28;20029;-59
2021/11/22 08:53:25;;;;;;;65.97;36.83;;;204.90;1996.80;;;;;;5053160;28;20449;-60
2021/11/22 08:55:50;;;;;;;58.40;35.40;;;204.80;1996.80;;;;;;5053214;28;20025;-63
2021/11/22 08:58:16;;;;;;;72.18;41.15;;;204.90;1971.20;;;;;;5053292;28;20119;-59
2021/11/22 09:00:43;;;;;;;69.13;38.38;;;205.00;1996.80;;;;;;5053349;28;20083;-59
2021/11/22 09:03:09;;;;;;;64.32;39.33;;;205.00;1996.80;;;;;;5053285;28;20486;-59
2021/11/22 09:05:35;;;;;;;70.30;41.25;;;205.00;1996.80;;;;;;5053630;28;20029;-63
2021/11/22 09:08:02;;;;;;;92.03;54.65;;;205.00;1971.20;;;;;;5053380;28;20021;-63
2021/11/22 09:10:28;;;;;;;91.78;50.83;;;205.10;1971.20;;;;;;5053006;28;20048;-60
2021/11/22 09:12:54;;;;;;;86.20;48.70;;;205.10;1971.20;;;;;;5053095;28;20021;-60
2021/11/22 09:15:21;;;;;;;74.55;44.78;;;205.10;1971.20;;;;;;5053057;28;20025;-59
2021/11/22 09:17:47;;;;;;;72.93;41.45;;;205.20;1996.80;;;;;;5053022;28;20037;-59
2021/11/22 09:20:13;;;;;;;76.80;43.03;;;205.20;1996.80;;;;;;5053023;28;20074;-59
2021/11/22 09:22:40;;;;;;;74.15;42.50;;;205.20;1996.80;;;;;;5055470;28;20032;-60
2021/11/22 09:25:07;;;;;;;75.85;43.10;;;205.20;1996.80;;;;;;5056775;28;20025;-63
2021/11/22 09:27:33;;;;;;;68.30;40.22;;;205.30;1996.80;;;;;;5056789;28;20025;-60
2021/11/22 09:29:59;;;;;;;66.22;41.35;;;205.30;1996.80;;;;;;5056801;28;20367;-59
2021/11/22 09:32:25;;;;;;;71.38;42.28;;;205.30;1971.20;;;;;;5055266;28;20129;-62
2021/11/22 09:34:51;;;;;;;63.80;38.35;;;205.30;1971.20;;;;;;5056773;28;20029;-60
2021/11/22 09:37:16;;;;;;;59.15;36.03;;;205.30;1971.20;;;;;;5056686;28;20464;-59
2021/11/22 09:39:43;;;;;;;57.08;31.58;;;205.40;1971.20;;;;;;5056105;28;20025;-59
2021/11/22 09:42:09;;;;;;;48.38;29.38;;;205.40;1945.60;;;;;;5056129;28;20033;-60
2021/11/22 09:44:35;;;;;;;48.80;27.63;;;205.40;1945.60;;;;;;5056547;28;20025;-62
2021/11/22 09:47:02;;;;;;;43.42;28.42;;;205.40;1945.60;;;;;;5056496;28;20027;-62
2021/11/22 09:49:28;;;;;;;38.17;23.50;;;205.40;1945.60;;;;;;5056404;28;20459;-59
2021/11/22 09:51:55;;;;;;;37.38;24.52;;;205.40;1945.60;;;;;;5056663;28;20025;-60
2021/11/22 09:54:21;;;;;;;46.53;26.92;;;205.40;1971.20;;;;;;5055967;28;20056;-59
2021/11/22 09:56:49;;;;;;;42.35;25.05;;;205.50;1971.20;;;;;;5056094;28;20036;-59
2021/11/22 09:59:21;;;;;;;39.50;26.60;;;205.50;1971.20;;;;;;5056129;28;20123;-62
2021/11/22 10:01:52;;;;;;;34.40;23.80;;;205.50;1945.60;;;;;;5056338;28;20036;-59
2021/11/22 10:04:19;;;;;;;37.40;23.92;;;205.60;1945.60;;;;;;5056184;28;20462;-62
2021/11/22 10:06:56;;;;;;;32.67;23.23;;;205.50;1971.20;;;;;;5056164;28;20029;-59
2021/11/22 10:09:48;;;;;;;37.10;25.05;;;205.50;1971.20;;;;;;5056032;28;20068;-59
2021/11/22 10:12:25;;;;;;;36.60;24.73;;;205.50;1971.20;;;;;;5054920;28;20482;-59
2021/11/22 10:14:54;;;;;;;46.08;24.10;;;205.60;1971.20;;;;;;5056097;28;20033;-59
2021/11/22 10:17:28;;;;;;;41.10;25.25;;;205.60;1971.20;;;;;;5055812;28;20036;-59
2021/11/22 10:20:06;;;;;;;45.28;26.80;;;205.60;1971.20;;;;;;5055905;28;20032;-60
2021/11/22 10:23:12;;;;;;;40.40;26.77;;;205.60;1996.80;;;;;;5055731;28;20028;-59
2021/11/22 10:25:43;;;;;;;47.55;27.70;;;205.60;1996.80;;;;;;5033625;28;20061;-60
2021/11/22 10:28:13;;;;;;;44.33;29.38;;;205.60;1996.80;;;;;;5033745;28;20037;-59
2021/11/22 10:30:48;;;;;;;44.95;28.48;;;205.60;1996.80;;;;;;5033711;28;20021;-59
2021/11/22 10:33:22;;;;;;;41.97;28.77;;;205.70;1996.80;;;;;;5032738;28;20510;-61
2021/11/22 10:35:51;;;;;;;38.20;25.60;;;205.70;1996.80;;;;;;5026038;28;20121;-61
2021/11/22 10:38:25;;;;;;;35.22;23.70;;;230.40;1996.80;;;;;;5020910;28;20037;-60
2021/11/22 10:40:53;;;;;;;42.83;23.95;;;230.40;1996.80;;;;;;5021540;28;20026;-61
2021/11/22 10:43:20;;;;;;;34.78;24.23;;;230.40;1996.80;;;;;;5023100;28;20022;-58
2021/11/22 10:45:49;;;;;;;42.63;28.08;;;230.50;1996.80;;;;;;5005180;28;20487;-59
2021/11/22 10:48:26;;;;;;;88.13;56.42;;;230.50;1996.80;;;;;;5020832;28;20036;-61
2021/11/22 10:51:27;;;;;;;86.75;62.13;;;230.90;2252.80;;;;;;5004509;28;20055;-59
2021/11/22 10:53:53;;;;;;;82.38;62.95;;;231.30;2252.80;;;;;;5023179;28;20050;-64
2021/11/22 10:56:27;;;;;;;74.20;55.45;;;256.20;2252.80;;;;;;5020599;28;20137;-62
2021/11/22 10:59:12;;;;;;;57.30;42.33;;;256.60;2176.00;;;;;;5020927;28;20128;-61
2021/11/22 11:01:42;;;;;;;49.53;38.45;;;256.90;2124.80;;;;;;5036710;28;20478;-60
2021/11/22 11:04:23;;;;;;;88.07;68.95;;;256.70;1894.40;;;;;;5053653;28;20417;-63
2021/11/22 11:07:09;;;;;;;69.70;55.70;;;256.50;1894.40;;;;;;5053639;28;20060;-61
2021/11/22 11:09:53;;;;;;;84.35;56.70;;;256.40;1894.40;;;;;;5053566;28;20037;-61
2021/11/22 11:12:24;;;;;;;267.95;150.77;;;256.30;1894.40;;;;;;5050914;28;20432;-61
2021/11/22 11:14:59;;;;;;;116.65;70.70;;;256.10;1920.00;;;;;;5054754;28;20025;-61
2021/11/22 11:17:36;;;;;;;71.47;45.72;;;256.10;1945.60;;;;;;5054569;28;20467;-61
2021/11/22 11:20:12;;;;;;;54.40;38.33;;;256.10;1945.60;;;;;;5052256;28;20039;-60
2021/11/22 11:22:38;;;;;;;53.45;37.90;;;256.10;1945.60;;;;;;5053877;28;20108;-62
2021/11/22 11:25:05;;;;;;;84.22;56.45;;;256.00;1920.00;;;;;;5053179;28;20025;-61
2021/11/22 11:27:32;;;;;;;94.28;64.38;;;256.10;1920.00;;;;;;5053903;28;20017;-61
2021/11/22 11:29:58;;;;;;;119.10;79.95;;;256.10;1920.00;;;;;;5053895;28;20070;-62
2021/11/22 11:32:25;;;;;;;125.07;87.43;;;256.00;1945.60;;;;;;5053921;28;20100;-63
2021/11/22 11:34:54;;;;;;;117.72;78.40;;;256.00;1945.60;;;;;;5053906;28;20071;-62
2021/11/22 11:37:38;;;;;;;78.38;53.63;;;256.00;1945.60;;;;;;5053742;28;20036;-60
2021/11/22 11:40:19;;;;;;;118.35;81.55;;;256.00;1945.60;;;;;;5052303;28;20054;-65
2021/11/22 11:42:53;;;;;;;75.30;54.10;;;256.00;1945.60;;;;;;5053874;28;20032;-62
2021/11/22 11:45:25;;;;;;;61.83;41.45;;;256.00;1945.60;;;;;;5052271;28;20056;-61
2021/11/22 11:48:10;;;;;;;79.45;56.17;;;256.00;1945.60;;;;;;5045627;28;20502;-61
2021/11/22 11:50:39;;;;;;;97.43;67.82;;;256.00;1945.60;;;;;;5052522;28;20021;-64
2021/11/22 11:53:08;;;;;;;84.15;56.03;;;256.00;1945.60;;;;;;5053843;28;20073;-63
2021/11/22 11:55:35;;;;;;;129.30;83.50;;;256.00;1945.60;;;;;;5053652;28;20070;-61
2021/11/22 11:58:37;;;;;;;169.32;110.20;;;256.00;1945.60;;;;;;5053664;28;20072;-60
2021/11/22 12:01:06;;;;;;;128.23;89.03;;;256.00;1945.60;;;;;;5031889;28;20371;-63
2021/11/22 12:04:02;;;;;;;86.72;60.50;;;256.00;1945.60;;;;;;5011178;28;20125;-63